sensor_id;sensor_type;location;lat;lon;timestamp;temperature;humidity
3690;DHT22;1861;50.240;8.596;2023-04-05T00:01:37;7.70;77.30
3690;DHT22;1861;50.240;8.596;2023-04-05T00:04:06;7.80;77.30
3690;DHT22;1861;50.240;8.596;2023-04-05T00:06:35;7.60;77.60
3690;DHT22;1861;50.240;8.596;2023-04-05T00:09:05;7.60;77.90
3690;DHT22;1861;50.240;8.596;2023-04-05T00:11:33;7.60;78.20
3690;DHT22;1861;50.240;8.596;2023-04-05T00:14:02;7.60;78.00
3690;DHT22;1861;50.240;8.596;2023-04-05T00:16:30;7.50;78.50
3690;DHT22;1861;50.240;8.596;2023-04-05T00:18:58;7.60;78.60
3690;DHT22;1861;50.240;8.596;2023-04-05T00:21:29;7.60;78.40
3690;DHT22;1861;50.240;8.596;2023-04-05T00:23:57;7.60;77.90
3690;DHT22;1861;50.240;8.596;2023-04-05T00:26:26;7.60;78.00
3690;DHT22;1861;50.240;8.596;2023-04-05T00:28:56;7.70;78.00
3690;DHT22;1861;50.240;8.596;2023-04-05T00:31:24;7.50;77.70
3690;DHT22;1861;50.240;8.596;2023-04-05T00:33:52;7.50;78.10
3690;DHT22;1861;50.240;8.596;2023-04-05T00:36:20;7.50;77.80
3690;DHT22;1861;50.240;8.596;2023-04-05T00:38:50;7.50;78.10
3690;DHT22;1861;50.240;8.596;2023-04-05T00:41:18;7.50;77.90
3690;DHT22;1861;50.240;8.596;2023-04-05T00:43:46;7.60;77.80
3690;DHT22;1861;50.240;8.596;2023-04-05T00:46:14;7.60;77.50
3690;DHT22;1861;50.240;8.596;2023-04-05T00:48:44;7.50;77.90
3690;DHT22;1861;50.240;8.596;2023-04-05T00:51:12;7.40;78.30
3690;DHT22;1861;50.240;8.596;2023-04-05T00:53:41;7.40;78.40
3690;DHT22;1861;50.240;8.596;2023-04-05T00:56:12;7.30;78.30
3690;DHT22;1861;50.240;8.596;2023-04-05T00:58:42;7.20;78.70
3690;DHT22;1861;50.240;8.596;2023-04-05T01:01:16;7.20;78.70
3690;DHT22;1861;50.240;8.596;2023-04-05T01:03:49;7.20;78.70
3690;DHT22;1861;50.240;8.596;2023-04-05T01:06:31;7.10;78.90
3690;DHT22;1861;50.240;8.596;2023-04-05T01:09:08;7.10;78.70
3690;DHT22;1861;50.240;8.596;2023-04-05T01:11:41;7.00;78.90
3690;DHT22;1861;50.240;8.596;2023-04-05T01:14:12;7.00;78.90
3690;DHT22;1861;50.240;8.596;2023-04-05T01:16:40;7.00;78.90
3690;DHT22;1861;50.240;8.596;2023-04-05T01:19:08;7.10;78.70
3690;DHT22;1861;50.240;8.596;2023-04-05T01:21:55;7.00;78.70
3690;DHT22;1861;50.240;8.596;2023-04-05T01:24:50;6.90;78.20
3690;DHT22;1861;50.240;8.596;2023-04-05T01:27:35;6.80;78.40
3690;DHT22;1861;50.240;8.596;2023-04-05T01:30:17;6.80;78.60
3690;DHT22;1861;50.240;8.596;2023-04-05T01:32:54;6.80;78.70
3690;DHT22;1861;50.240;8.596;2023-04-05T01:35:31;6.80;78.60
3690;DHT22;1861;50.240;8.596;2023-04-05T01:38:03;6.80;78.70
3690;DHT22;1861;50.240;8.596;2023-04-05T01:40:34;6.90;78.60
3690;DHT22;1861;50.240;8.596;2023-04-05T01:43:12;7.00;78.00
3690;DHT22;1861;50.240;8.596;2023-04-05T01:45:41;6.90;78.10
3690;DHT22;1861;50.240;8.596;2023-04-05T01:48:10;7.00;77.90
3690;DHT22;1861;50.240;8.596;2023-04-05T01:50:38;6.90;77.80
3690;DHT22;1861;50.240;8.596;2023-04-05T01:53:07;6.80;77.90
3690;DHT22;1861;50.240;8.596;2023-04-05T01:55:35;6.70;78.00
3690;DHT22;1861;50.240;8.596;2023-04-05T01:58:03;6.70;78.10
3690;DHT22;1861;50.240;8.596;2023-04-05T02:00:31;6.70;78.30
3690;DHT22;1861;50.240;8.596;2023-04-05T02:03:00;6.80;77.70
3690;DHT22;1861;50.240;8.596;2023-04-05T02:05:29;6.70;77.30
3690;DHT22;1861;50.240;8.596;2023-04-05T02:07:57;6.70;77.60
3690;DHT22;1861;50.240;8.596;2023-04-05T02:10:25;6.60;77.80
3690;DHT22;1861;50.240;8.596;2023-04-05T02:12:53;6.60;77.90
3690;DHT22;1861;50.240;8.596;2023-04-05T02:15:22;6.50;78.10
3690;DHT22;1861;50.240;8.596;2023-04-05T02:17:50;6.60;78.10
3690;DHT22;1861;50.240;8.596;2023-04-05T02:20:21;6.60;78.20
3690;DHT22;1861;50.240;8.596;2023-04-05T02:22:51;6.60;77.80
3690;DHT22;1861;50.240;8.596;2023-04-05T02:25:20;6.50;78.00
3690;DHT22;1861;50.240;8.596;2023-04-05T02:27:48;6.60;78.00
3690;DHT22;1861;50.240;8.596;2023-04-05T02:30:16;6.60;77.80
3690;DHT22;1861;50.240;8.596;2023-04-05T02:32:44;6.50;77.70
3690;DHT22;1861;50.240;8.596;2023-04-05T02:35:12;6.50;77.80
3690;DHT22;1861;50.240;8.596;2023-04-05T02:37:44;6.40;77.50
3690;DHT22;1861;50.240;8.596;2023-04-05T02:40:13;6.40;77.80
3690;DHT22;1861;50.240;8.596;2023-04-05T02:42:41;6.50;77.70
3690;DHT22;1861;50.240;8.596;2023-04-05T02:45:10;6.60;77.90
3690;DHT22;1861;50.240;8.596;2023-04-05T02:47:38;6.60;77.90
3690;DHT22;1861;50.240;8.596;2023-04-05T02:50:07;6.50;77.40
3690;DHT22;1861;50.240;8.596;2023-04-05T02:52:41;6.60;77.60
3690;DHT22;1861;50.240;8.596;2023-04-05T02:55:10;6.60;77.80
3690;DHT22;1861;50.240;8.596;2023-04-05T02:57:38;6.60;77.60
3690;DHT22;1861;50.240;8.596;2023-04-05T03:00:19;6.70;77.30
3690;DHT22;1861;50.240;8.596;2023-04-05T03:02:48;6.50;77.50
3690;DHT22;1861;50.240;8.596;2023-04-05T03:05:17;6.40;77.60
3690;DHT22;1861;50.240;8.596;2023-04-05T03:07:49;6.40;77.50
3690;DHT22;1861;50.240;8.596;2023-04-05T03:10:23;6.30;77.60
3690;DHT22;1861;50.240;8.596;2023-04-05T03:13:01;6.30;77.70
3690;DHT22;1861;50.240;8.596;2023-04-05T03:15:31;6.30;77.70
3690;DHT22;1861;50.240;8.596;2023-04-05T03:18:05;6.40;77.70
3690;DHT22;1861;50.240;8.596;2023-04-05T03:20:34;6.40;77.30
3690;DHT22;1861;50.240;8.596;2023-04-05T03:23:12;6.50;77.30
3690;DHT22;1861;50.240;8.596;2023-04-05T03:25:42;6.60;77.00
3690;DHT22;1861;50.240;8.596;2023-04-05T03:28:11;6.50;77.20
3690;DHT22;1861;50.240;8.596;2023-04-05T03:30:43;6.50;77.00
3690;DHT22;1861;50.240;8.596;2023-04-05T03:33:16;6.40;76.90
3690;DHT22;1861;50.240;8.596;2023-04-05T03:35:47;6.30;77.40
3690;DHT22;1861;50.240;8.596;2023-04-05T03:38:16;6.30;77.60
3690;DHT22;1861;50.240;8.596;2023-04-05T03:41:00;6.30;77.50
3690;DHT22;1861;50.240;8.596;2023-04-05T03:43:29;6.30;77.50
3690;DHT22;1861;50.240;8.596;2023-04-05T03:45:58;6.30;77.20
3690;DHT22;1861;50.240;8.596;2023-04-05T03:48:28;6.30;77.10
3690;DHT22;1861;50.240;8.596;2023-04-05T03:50:56;6.20;77.30
3690;DHT22;1861;50.240;8.596;2023-04-05T03:53:24;6.10;77.30
3690;DHT22;1861;50.240;8.596;2023-04-05T03:55:55;6.10;77.30
3690;DHT22;1861;50.240;8.596;2023-04-05T03:58:39;6.10;77.40
3690;DHT22;1861;50.240;8.596;2023-04-05T04:01:09;6.10;77.30
3690;DHT22;1861;50.240;8.596;2023-04-05T04:03:37;6.20;77.10
3690;DHT22;1861;50.240;8.596;2023-04-05T04:06:06;6.20;77.00
3690;DHT22;1861;50.240;8.596;2023-04-05T04:08:34;6.20;77.00
3690;DHT22;1861;50.240;8.596;2023-04-05T04:11:03;6.20;77.00
3690;DHT22;1861;50.240;8.596;2023-04-05T04:13:39;6.20;77.10
3690;DHT22;1861;50.240;8.596;2023-04-05T04:16:32;6.10;77.10
3690;DHT22;1861;50.240;8.596;2023-04-05T04:19:03;6.10;77.30
3690;DHT22;1861;50.240;8.596;2023-04-05T04:22:01;6.10;77.10
3690;DHT22;1861;50.240;8.596;2023-04-05T04:24:42;6.10;77.10
3690;DHT22;1861;50.240;8.596;2023-04-05T04:27:33;6.10;77.00
3690;DHT22;1861;50.240;8.596;2023-04-05T04:30:41;6.20;77.20
3690;DHT22;1861;50.240;8.596;2023-04-05T04:33:35;6.20;76.90
3690;DHT22;1861;50.240;8.596;2023-04-05T04:36:16;6.10;76.80
3690;DHT22;1861;50.240;8.596;2023-04-05T04:39:19;6.10;77.10
3690;DHT22;1861;50.240;8.596;2023-04-05T04:42:31;6.10;77.00
3690;DHT22;1861;50.240;8.596;2023-04-05T04:45:08;6.20;76.80
3690;DHT22;1861;50.240;8.596;2023-04-05T04:48:01;6.20;76.70
3690;DHT22;1861;50.240;8.596;2023-04-05T04:50:51;6.10;76.80
3690;DHT22;1861;50.240;8.596;2023-04-05T04:53:21;6.10;77.10
3690;DHT22;1861;50.240;8.596;2023-04-05T04:55:50;6.10;77.00
3690;DHT22;1861;50.240;8.596;2023-04-05T04:58:18;6.10;76.80
3690;DHT22;1861;50.240;8.596;2023-04-05T05:00:53;6.10;76.70
3690;DHT22;1861;50.240;8.596;2023-04-05T05:03:25;6.10;77.00
3690;DHT22;1861;50.240;8.596;2023-04-05T05:05:53;6.10;76.90
3690;DHT22;1861;50.240;8.596;2023-04-05T05:08:28;6.10;76.80
3690;DHT22;1861;50.240;8.596;2023-04-05T05:10:56;6.00;77.20
3690;DHT22;1861;50.240;8.596;2023-04-05T05:13:24;5.90;77.30
3690;DHT22;1861;50.240;8.596;2023-04-05T05:15:52;6.00;77.30
3690;DHT22;1861;50.240;8.596;2023-04-05T05:18:25;6.10;77.20
3690;DHT22;1861;50.240;8.596;2023-04-05T05:20:53;6.00;77.20
3690;DHT22;1861;50.240;8.596;2023-04-05T05:23:21;6.00;77.40
3690;DHT22;1861;50.240;8.596;2023-04-05T05:25:49;6.10;77.20
3690;DHT22;1861;50.240;8.596;2023-04-05T05:28:17;6.10;77.10
3690;DHT22;1861;50.240;8.596;2023-04-05T05:30:45;6.00;77.20
3690;DHT22;1861;50.240;8.596;2023-04-05T05:33:13;6.10;77.30
3690;DHT22;1861;50.240;8.596;2023-04-05T05:35:46;6.00;77.20
3690;DHT22;1861;50.240;8.596;2023-04-05T05:38:14;6.10;76.80
3690;DHT22;1861;50.240;8.596;2023-04-05T05:40:43;6.00;76.40
3690;DHT22;1861;50.240;8.596;2023-04-05T05:43:11;6.00;76.40
3690;DHT22;1861;50.240;8.596;2023-04-05T05:45:39;6.00;77.10
3690;DHT22;1861;50.240;8.596;2023-04-05T05:48:07;6.00;77.70
3690;DHT22;1861;50.240;8.596;2023-04-05T05:50:35;6.00;77.60
3690;DHT22;1861;50.240;8.596;2023-04-05T05:53:06;6.00;78.20
3690;DHT22;1861;50.240;8.596;2023-04-05T05:55:35;6.10;78.10
3690;DHT22;1861;50.240;8.596;2023-04-05T05:58:03;6.10;78.50
3690;DHT22;1861;50.240;8.596;2023-04-05T06:00:32;6.10;77.90
3690;DHT22;1861;50.240;8.596;2023-04-05T06:03:00;6.10;78.20
3690;DHT22;1861;50.240;8.596;2023-04-05T06:05:28;6.10;78.80
3690;DHT22;1861;50.240;8.596;2023-04-05T06:07:56;6.10;78.90
3690;DHT22;1861;50.240;8.596;2023-04-05T06:10:26;6.10;79.00
3690;DHT22;1861;50.240;8.596;2023-04-05T06:12:54;6.20;79.60
3690;DHT22;1861;50.240;8.596;2023-04-05T06:15:22;6.30;79.80
3690;DHT22;1861;50.240;8.596;2023-04-05T06:17:50;6.30;80.10
3690;DHT22;1861;50.240;8.596;2023-04-05T06:20:18;6.40;79.50
3690;DHT22;1861;50.240;8.596;2023-04-05T06:22:47;6.40;79.80
3690;DHT22;1861;50.240;8.596;2023-04-05T06:25:15;6.40;79.20
3690;DHT22;1861;50.240;8.596;2023-04-05T06:27:45;6.60;78.50
3690;DHT22;1861;50.240;8.596;2023-04-05T06:30:14;6.70;78.40
3690;DHT22;1861;50.240;8.596;2023-04-05T06:32:42;6.60;77.70
3690;DHT22;1861;50.240;8.596;2023-04-05T06:35:11;6.70;76.60
3690;DHT22;1861;50.240;8.596;2023-04-05T06:37:39;6.80;76.60
3690;DHT22;1861;50.240;8.596;2023-04-05T06:40:09;6.90;75.40
3690;DHT22;1861;50.240;8.596;2023-04-05T06:42:37;7.00;76.00
3690;DHT22;1861;50.240;8.596;2023-04-05T06:45:11;6.90;75.50
3690;DHT22;1861;50.240;8.596;2023-04-05T06:47:39;7.00;75.40
3690;DHT22;1861;50.240;8.596;2023-04-05T06:50:08;7.00;75.90
3690;DHT22;1861;50.240;8.596;2023-04-05T06:52:37;7.00;75.70
3690;DHT22;1861;50.240;8.596;2023-04-05T06:55:06;7.00;75.20
3690;DHT22;1861;50.240;8.596;2023-04-05T06:57:35;7.10;74.80
3690;DHT22;1861;50.240;8.596;2023-04-05T07:00:04;7.20;74.40
3690;DHT22;1861;50.240;8.596;2023-04-05T07:02:38;7.20;73.80
3690;DHT22;1861;50.240;8.596;2023-04-05T07:05:06;7.30;73.60
3690;DHT22;1861;50.240;8.596;2023-04-05T07:07:38;7.30;72.80
3690;DHT22;1861;50.240;8.596;2023-04-05T07:10:07;7.30;72.70
3690;DHT22;1861;50.240;8.596;2023-04-05T07:12:36;7.30;72.80
3690;DHT22;1861;50.240;8.596;2023-04-05T07:15:05;7.40;72.70
3690;DHT22;1861;50.240;8.596;2023-04-05T07:17:33;7.40;72.20
3690;DHT22;1861;50.240;8.596;2023-04-05T07:20:03;7.40;72.60
3690;DHT22;1861;50.240;8.596;2023-04-05T07:22:33;7.50;72.50
3690;DHT22;1861;50.240;8.596;2023-04-05T07:25:02;7.60;72.10
3690;DHT22;1861;50.240;8.596;2023-04-05T07:27:31;7.60;71.00
3690;DHT22;1861;50.240;8.596;2023-04-05T07:30:00;7.70;70.50
3690;DHT22;1861;50.240;8.596;2023-04-05T07:32:29;7.70;70.30
3690;DHT22;1861;50.240;8.596;2023-04-05T07:34:57;7.80;71.30
3690;DHT22;1861;50.240;8.596;2023-04-05T07:37:26;7.80;70.70
3690;DHT22;1861;50.240;8.596;2023-04-05T07:39:54;7.70;69.90
3690;DHT22;1861;50.240;8.596;2023-04-05T07:42:24;7.80;69.50
3690;DHT22;1861;50.240;8.596;2023-04-05T07:44:53;7.90;69.60
3690;DHT22;1861;50.240;8.596;2023-04-05T07:47:21;7.90;69.60
3690;DHT22;1861;50.240;8.596;2023-04-05T07:49:49;7.90;69.60
3690;DHT22;1861;50.240;8.596;2023-04-05T07:52:17;7.90;68.40
3690;DHT22;1861;50.240;8.596;2023-04-05T07:54:47;8.00;69.50
3690;DHT22;1861;50.240;8.596;2023-04-05T07:57:15;8.20;69.90
3690;DHT22;1861;50.240;8.596;2023-04-05T07:59:44;8.30;69.70
3690;DHT22;1861;50.240;8.596;2023-04-05T08:02:13;8.30;69.20
3690;DHT22;1861;50.240;8.596;2023-04-05T08:04:41;8.50;70.30
3690;DHT22;1861;50.240;8.596;2023-04-05T08:07:11;8.50;70.20
3690;DHT22;1861;50.240;8.596;2023-04-05T08:09:39;8.60;69.20
3690;DHT22;1861;50.240;8.596;2023-04-05T08:12:09;8.60;69.60
3690;DHT22;1861;50.240;8.596;2023-04-05T08:14:37;8.70;69.10
3690;DHT22;1861;50.240;8.596;2023-04-05T08:17:05;8.70;68.50
3690;DHT22;1861;50.240;8.596;2023-04-05T08:19:33;8.80;68.60
3690;DHT22;1861;50.240;8.596;2023-04-05T08:22:01;8.70;67.60
3690;DHT22;1861;50.240;8.596;2023-04-05T08:24:30;8.90;68.40
3690;DHT22;1861;50.240;8.596;2023-04-05T08:26:58;8.90;67.80
3690;DHT22;1861;50.240;8.596;2023-04-05T08:29:28;9.00;67.10
3690;DHT22;1861;50.240;8.596;2023-04-05T08:31:56;9.00;67.00
3690;DHT22;1861;50.240;8.596;2023-04-05T08:34:24;9.10;67.00
3690;DHT22;1861;50.240;8.596;2023-04-05T08:36:56;9.10;66.60
3690;DHT22;1861;50.240;8.596;2023-04-05T08:39:25;9.20;65.70
3690;DHT22;1861;50.240;8.596;2023-04-05T08:41:58;9.30;65.40
3690;DHT22;1861;50.240;8.596;2023-04-05T08:44:30;9.40;65.80
3690;DHT22;1861;50.240;8.596;2023-04-05T08:46:59;9.50;65.90
3690;DHT22;1861;50.240;8.596;2023-04-05T08:49:27;9.50;65.60
3690;DHT22;1861;50.240;8.596;2023-04-05T08:51:55;9.50;64.30
3690;DHT22;1861;50.240;8.596;2023-04-05T08:54:26;9.60;65.30
3690;DHT22;1861;50.240;8.596;2023-04-05T08:56:55;9.60;65.60
3690;DHT22;1861;50.240;8.596;2023-04-05T08:59:25;9.60;65.70
3690;DHT22;1861;50.240;8.596;2023-04-05T09:01:56;9.70;65.30
3690;DHT22;1861;50.240;8.596;2023-04-05T09:04:29;9.70;65.10
3690;DHT22;1861;50.240;8.596;2023-04-05T09:07:00;9.80;64.40
3690;DHT22;1861;50.240;8.596;2023-04-05T09:09:32;9.80;65.20
3690;DHT22;1861;50.240;8.596;2023-04-05T09:12:03;9.70;65.70
3690;DHT22;1861;50.240;8.596;2023-04-05T09:14:32;9.80;65.60
3690;DHT22;1861;50.240;8.596;2023-04-05T09:17:02;9.80;65.90
3690;DHT22;1861;50.240;8.596;2023-04-05T09:19:30;9.90;64.40
3690;DHT22;1861;50.240;8.596;2023-04-05T09:22:00;9.90;65.10
3690;DHT22;1861;50.240;8.596;2023-04-05T09:24:31;9.90;64.90
3690;DHT22;1861;50.240;8.596;2023-04-05T09:27:04;9.90;64.50
3690;DHT22;1861;50.240;8.596;2023-04-05T09:29:33;9.90;65.00
3690;DHT22;1861;50.240;8.596;2023-04-05T09:32:06;10.00;62.80
3690;DHT22;1861;50.240;8.596;2023-04-05T09:34:34;10.00;61.10
3690;DHT22;1861;50.240;8.596;2023-04-05T09:37:12;10.00;63.10
3690;DHT22;1861;50.240;8.596;2023-04-05T09:39:41;10.00;63.60
3690;DHT22;1861;50.240;8.596;2023-04-05T09:42:11;10.10;62.10
3690;DHT22;1861;50.240;8.596;2023-04-05T09:44:51;10.10;62.20
3690;DHT22;1861;50.240;8.596;2023-04-05T09:47:22;10.10;61.30
3690;DHT22;1861;50.240;8.596;2023-04-05T09:49:56;10.20;61.40
3690;DHT22;1861;50.240;8.596;2023-04-05T09:52:26;10.20;61.80
3690;DHT22;1861;50.240;8.596;2023-04-05T09:54:56;10.30;62.20
3690;DHT22;1861;50.240;8.596;2023-04-05T09:57:25;10.30;61.50
3690;DHT22;1861;50.240;8.596;2023-04-05T09:59:55;10.30;59.90
3690;DHT22;1861;50.240;8.596;2023-04-05T10:02:33;10.40;61.30
3690;DHT22;1861;50.240;8.596;2023-04-05T10:05:05;10.40;61.00
3690;DHT22;1861;50.240;8.596;2023-04-05T10:07:33;10.40;61.60
3690;DHT22;1861;50.240;8.596;2023-04-05T10:10:02;10.40;61.30
3690;DHT22;1861;50.240;8.596;2023-04-05T10:12:31;10.50;61.90
3690;DHT22;1861;50.240;8.596;2023-04-05T10:15:00;10.50;61.00
3690;DHT22;1861;50.240;8.596;2023-04-05T10:17:36;10.60;60.50
3690;DHT22;1861;50.240;8.596;2023-04-05T10:20:09;10.60;60.60
3690;DHT22;1861;50.240;8.596;2023-04-05T10:22:47;10.60;61.10
3690;DHT22;1861;50.240;8.596;2023-04-05T10:25:26;10.70;60.20
3690;DHT22;1861;50.240;8.596;2023-04-05T10:27:58;10.70;61.60
3690;DHT22;1861;50.240;8.596;2023-04-05T10:30:33;10.70;61.40
3690;DHT22;1861;50.240;8.596;2023-04-05T10:33:10;10.80;61.60
3690;DHT22;1861;50.240;8.596;2023-04-05T10:35:49;10.80;61.50
3690;DHT22;1861;50.240;8.596;2023-04-05T10:38:24;10.90;61.40
3690;DHT22;1861;50.240;8.596;2023-04-05T10:40:53;10.90;60.90
3690;DHT22;1861;50.240;8.596;2023-04-05T10:43:24;10.90;61.70
3690;DHT22;1861;50.240;8.596;2023-04-05T10:45:54;11.00;60.90
3690;DHT22;1861;50.240;8.596;2023-04-05T10:48:35;11.00;61.30
3690;DHT22;1861;50.240;8.596;2023-04-05T10:51:04;11.00;61.20
3690;DHT22;1861;50.240;8.596;2023-04-05T10:53:33;11.10;60.70
3690;DHT22;1861;50.240;8.596;2023-04-05T10:56:02;11.10;60.50
3690;DHT22;1861;50.240;8.596;2023-04-05T10:58:31;11.20;59.60
3690;DHT22;1861;50.240;8.596;2023-04-05T11:00:59;11.20;60.40
3690;DHT22;1861;50.240;8.596;2023-04-05T11:03:44;11.20;60.80
3690;DHT22;1861;50.240;8.596;2023-04-05T11:06:20;11.20;60.50
3690;DHT22;1861;50.240;8.596;2023-04-05T11:08:52;11.30;60.90
3690;DHT22;1861;50.240;8.596;2023-04-05T11:11:22;11.30;60.40
3690;DHT22;1861;50.240;8.596;2023-04-05T11:13:52;11.40;60.00
3690;DHT22;1861;50.240;8.596;2023-04-05T11:16:21;11.40;59.40
3690;DHT22;1861;50.240;8.596;2023-04-05T11:18:51;11.40;59.90
3690;DHT22;1861;50.240;8.596;2023-04-05T11:21:21;11.50;60.20
3690;DHT22;1861;50.240;8.596;2023-04-05T11:23:59;11.50;59.70
3690;DHT22;1861;50.240;8.596;2023-04-05T11:26:33;11.50;59.60
3690;DHT22;1861;50.240;8.596;2023-04-05T11:29:01;11.60;60.30
3690;DHT22;1861;50.240;8.596;2023-04-05T11:31:29;11.60;59.10
3690;DHT22;1861;50.240;8.596;2023-04-05T11:33:59;11.60;59.20
3690;DHT22;1861;50.240;8.596;2023-04-05T11:36:37;11.60;59.70
3690;DHT22;1861;50.240;8.596;2023-04-05T11:39:26;11.60;60.50
3690;DHT22;1861;50.240;8.596;2023-04-05T11:42:04;11.60;60.10
3690;DHT22;1861;50.240;8.596;2023-04-05T11:44:43;11.70;59.20
3690;DHT22;1861;50.240;8.596;2023-04-05T11:47:12;11.70;59.50
3690;DHT22;1861;50.240;8.596;2023-04-05T11:49:42;11.70;60.30
3690;DHT22;1861;50.240;8.596;2023-04-05T11:52:14;11.70;60.70
3690;DHT22;1861;50.240;8.596;2023-04-05T11:54:43;11.70;59.60
3690;DHT22;1861;50.240;8.596;2023-04-05T11:57:19;11.70;59.50
3690;DHT22;1861;50.240;8.596;2023-04-05T11:59:49;11.70;60.20
3690;DHT22;1861;50.240;8.596;2023-04-05T12:02:19;11.70;60.00
3690;DHT22;1861;50.240;8.596;2023-04-05T12:04:54;11.70;59.90
3690;DHT22;1861;50.240;8.596;2023-04-05T12:07:25;11.70;59.60
3690;DHT22;1861;50.240;8.596;2023-04-05T12:09:56;11.70;59.30
3690;DHT22;1861;50.240;8.596;2023-04-05T12:12:24;11.70;58.00
3690;DHT22;1861;50.240;8.596;2023-04-05T12:14:58;11.70;59.20
3690;DHT22;1861;50.240;8.596;2023-04-05T12:17:43;11.80;60.50
3690;DHT22;1861;50.240;8.596;2023-04-05T12:20:15;11.70;59.20
3690;DHT22;1861;50.240;8.596;2023-04-05T12:22:47;11.70;59.60
3690;DHT22;1861;50.240;8.596;2023-04-05T12:25:16;11.70;59.80
3690;DHT22;1861;50.240;8.596;2023-04-05T12:27:45;11.70;59.30
3690;DHT22;1861;50.240;8.596;2023-04-05T12:30:14;11.70;59.70
3690;DHT22;1861;50.240;8.596;2023-04-05T12:32:44;11.80;59.70
3690;DHT22;1861;50.240;8.596;2023-04-05T12:35:17;11.80;59.60
3690;DHT22;1861;50.240;8.596;2023-04-05T12:37:46;11.90;59.60
3690;DHT22;1861;50.240;8.596;2023-04-05T12:40:19;11.90;59.60
3690;DHT22;1861;50.240;8.596;2023-04-05T12:42:48;11.90;59.90
3690;DHT22;1861;50.240;8.596;2023-04-05T12:45:16;11.90;59.20
3690;DHT22;1861;50.240;8.596;2023-04-05T12:47:50;12.00;57.60
3690;DHT22;1861;50.240;8.596;2023-04-05T12:50:25;12.00;59.00
3690;DHT22;1861;50.240;8.596;2023-04-05T12:52:56;12.00;59.50
3690;DHT22;1861;50.240;8.596;2023-04-05T12:55:25;12.10;59.70
3690;DHT22;1861;50.240;8.596;2023-04-05T12:57:54;12.10;58.30
3690;DHT22;1861;50.240;8.596;2023-04-05T13:00:26;12.00;59.30
3690;DHT22;1861;50.240;8.596;2023-04-05T13:02:55;12.10;58.90
3690;DHT22;1861;50.240;8.596;2023-04-05T13:05:26;12.00;59.80
3690;DHT22;1861;50.240;8.596;2023-04-05T13:07:55;12.10;59.40
3690;DHT22;1861;50.240;8.596;2023-04-05T13:10:24;12.00;56.80
3690;DHT22;1861;50.240;8.596;2023-04-05T13:12:52;12.00;58.10
3690;DHT22;1861;50.240;8.596;2023-04-05T13:15:20;11.90;58.60
3690;DHT22;1861;50.240;8.596;2023-04-05T13:17:48;11.90;57.80
3690;DHT22;1861;50.240;8.596;2023-04-05T13:20:18;11.90;57.70
3690;DHT22;1861;50.240;8.596;2023-04-05T13:22:47;11.90;57.20
3690;DHT22;1861;50.240;8.596;2023-04-05T13:25:16;11.90;58.60
3690;DHT22;1861;50.240;8.596;2023-04-05T13:27:44;11.90;57.80
3690;DHT22;1861;50.240;8.596;2023-04-05T13:30:12;11.90;58.10
3690;DHT22;1861;50.240;8.596;2023-04-05T13:32:40;11.90;57.80
3690;DHT22;1861;50.240;8.596;2023-04-05T13:35:08;11.90;57.90
3690;DHT22;1861;50.240;8.596;2023-04-05T13:37:37;11.90;58.00
3690;DHT22;1861;50.240;8.596;2023-04-05T13:40:07;11.90;57.00
3690;DHT22;1861;50.240;8.596;2023-04-05T13:42:36;11.90;57.30
3690;DHT22;1861;50.240;8.596;2023-04-05T13:45:05;11.90;57.20
3690;DHT22;1861;50.240;8.596;2023-04-05T13:47:33;11.90;57.40
3690;DHT22;1861;50.240;8.596;2023-04-05T13:50:01;11.90;57.80
3690;DHT22;1861;50.240;8.596;2023-04-05T13:52:29;11.90;57.60
3690;DHT22;1861;50.240;8.596;2023-04-05T13:54:58;11.90;57.60
3690;DHT22;1861;50.240;8.596;2023-04-05T13:57:31;11.90;57.50
3690;DHT22;1861;50.240;8.596;2023-04-05T13:59:59;12.00;56.90
3690;DHT22;1861;50.240;8.596;2023-04-05T14:02:37;11.90;56.30
3690;DHT22;1861;50.240;8.596;2023-04-05T14:05:07;12.00;56.50
3690;DHT22;1861;50.240;8.596;2023-04-05T14:07:35;12.00;56.90
3690;DHT22;1861;50.240;8.596;2023-04-05T14:10:04;12.00;57.50
3690;DHT22;1861;50.240;8.596;2023-04-05T14:12:34;12.00;57.60
3690;DHT22;1861;50.240;8.596;2023-04-05T14:15:03;12.00;57.30
3690;DHT22;1861;50.240;8.596;2023-04-05T14:17:31;12.00;57.10
3690;DHT22;1861;50.240;8.596;2023-04-05T14:20:00;12.00;56.90
3690;DHT22;1861;50.240;8.596;2023-04-05T14:22:28;12.00;56.20
3690;DHT22;1861;50.240;8.596;2023-04-05T14:24:56;12.00;55.80
3690;DHT22;1861;50.240;8.596;2023-04-05T14:27:25;12.00;56.40
3690;DHT22;1861;50.240;8.596;2023-04-05T14:29:55;12.00;56.60
3690;DHT22;1861;50.240;8.596;2023-04-05T14:32:23;12.10;56.30
3690;DHT22;1861;50.240;8.596;2023-04-05T14:34:52;12.00;56.10
3690;DHT22;1861;50.240;8.596;2023-04-05T14:37:20;12.10;56.60
3690;DHT22;1861;50.240;8.596;2023-04-05T14:39:48;12.10;55.80
3690;DHT22;1861;50.240;8.596;2023-04-05T14:42:16;12.10;55.80
3690;DHT22;1861;50.240;8.596;2023-04-05T14:44:45;12.10;54.90
3690;DHT22;1861;50.240;8.596;2023-04-05T14:47:14;12.10;55.80
3690;DHT22;1861;50.240;8.596;2023-04-05T14:49:42;12.10;56.10
3690;DHT22;1861;50.240;8.596;2023-04-05T14:52:11;12.10;55.70
3690;DHT22;1861;50.240;8.596;2023-04-05T14:54:40;12.10;55.50
3690;DHT22;1861;50.240;8.596;2023-04-05T14:57:08;12.00;55.60
3690;DHT22;1861;50.240;8.596;2023-04-05T14:59:36;12.10;55.80
3690;DHT22;1861;50.240;8.596;2023-04-05T15:02:04;12.10;54.80
3690;DHT22;1861;50.240;8.596;2023-04-05T15:04:34;12.20;55.40
3690;DHT22;1861;50.240;8.596;2023-04-05T15:07:02;12.10;55.30
3690;DHT22;1861;50.240;8.596;2023-04-05T15:09:30;12.20;55.40
3690;DHT22;1861;50.240;8.596;2023-04-05T15:11:59;12.20;55.00
3690;DHT22;1861;50.240;8.596;2023-04-05T15:14:28;12.20;55.40
3690;DHT22;1861;50.240;8.596;2023-04-05T15:16:58;12.20;54.60
3690;DHT22;1861;50.240;8.596;2023-04-05T15:19:26;12.20;54.70
3690;DHT22;1861;50.240;8.596;2023-04-05T15:21:57;12.20;55.30
3690;DHT22;1861;50.240;8.596;2023-04-05T15:24:26;12.20;53.10
3690;DHT22;1861;50.240;8.596;2023-04-05T15:26:54;12.10;52.90
3690;DHT22;1861;50.240;8.596;2023-04-05T15:29:28;12.10;54.60
3690;DHT22;1861;50.240;8.596;2023-04-05T15:31:56;12.10;54.30
3690;DHT22;1861;50.240;8.596;2023-04-05T15:34:25;12.10;54.80
3690;DHT22;1861;50.240;8.596;2023-04-05T15:36:53;12.10;54.20
3690;DHT22;1861;50.240;8.596;2023-04-05T15:39:23;12.10;53.70
3690;DHT22;1861;50.240;8.596;2023-04-05T15:41:52;12.20;53.70
3690;DHT22;1861;50.240;8.596;2023-04-05T15:44:20;12.10;50.70
3690;DHT22;1861;50.240;8.596;2023-04-05T15:46:48;12.00;52.60
3690;DHT22;1861;50.240;8.596;2023-04-05T15:49:16;12.00;51.30
3690;DHT22;1861;50.240;8.596;2023-04-05T15:51:45;12.00;52.80
3690;DHT22;1861;50.240;8.596;2023-04-05T15:54:13;12.10;51.40
3690;DHT22;1861;50.240;8.596;2023-04-05T15:56:46;12.10;52.10
3690;DHT22;1861;50.240;8.596;2023-04-05T15:59:14;12.10;52.80
3690;DHT22;1861;50.240;8.596;2023-04-05T16:01:43;12.10;51.50
3690;DHT22;1861;50.240;8.596;2023-04-05T16:04:11;12.10;52.80
3690;DHT22;1861;50.240;8.596;2023-04-05T16:06:39;12.10;52.80
3690;DHT22;1861;50.240;8.596;2023-04-05T16:09:07;12.10;52.30
3690;DHT22;1861;50.240;8.596;2023-04-05T16:11:36;12.10;53.60
3690;DHT22;1861;50.240;8.596;2023-04-05T16:14:05;12.10;53.20
3690;DHT22;1861;50.240;8.596;2023-04-05T16:16:35;12.10;51.60
3690;DHT22;1861;50.240;8.596;2023-04-05T16:19:19;12.00;51.00
3690;DHT22;1861;50.240;8.596;2023-04-05T16:21:50;12.00;50.80
3690;DHT22;1861;50.240;8.596;2023-04-05T16:24:18;11.90;49.60
3690;DHT22;1861;50.240;8.596;2023-04-05T16:26:47;11.90;49.60
3690;DHT22;1861;50.240;8.596;2023-04-05T16:29:16;11.70;49.90
3690;DHT22;1861;50.240;8.596;2023-04-05T16:31:44;11.70;51.60
3690;DHT22;1861;50.240;8.596;2023-04-05T16:34:13;11.70;51.00
3690;DHT22;1861;50.240;8.596;2023-04-05T16:36:42;11.70;52.80